createdAt,value
2023-04-07T00:00:08.364Z,1012.32
2023-04-07T00:05:08.589Z,1012.3
2023-04-07T00:10:08.857Z,1012.39
2023-04-07T00:15:08.900Z,1012.39
2023-04-07T00:20:08.982Z,1012.36
2023-04-07T00:25:08.061Z,1012.36
2023-04-07T00:30:08.097Z,1012.37
2023-04-07T00:35:08.130Z,1012.38
2023-04-07T00:40:08.235Z,1012.38
2023-04-07T00:45:08.298Z,1012.31
2023-04-07T00:50:08.394Z,1012.36
2023-04-07T00:55:08.487Z,1012.36
2023-04-07T01:00:08.505Z,1012.34
2023-04-07T01:05:18.626Z,1012.34
2023-04-07T01:10:08.729Z,1012.35
2023-04-07T01:15:08.779Z,1012.29
2023-04-07T01:20:08.827Z,1012.36
2023-04-07T01:25:08.884Z,1012.4
2023-04-07T01:30:08.934Z,1012.32
2023-04-07T01:35:07.972Z,1012.32
2023-04-07T01:40:08.001Z,1012.34
2023-04-07T01:45:08.011Z,1012.28
2023-04-07T01:50:08.069Z,1012.28
2023-04-07T01:55:08.135Z,1012.36
2023-04-07T02:00:08.199Z,1012.31
2023-04-07T02:05:08.247Z,1012.34
2023-04-07T02:10:08.356Z,1012.34
2023-04-07T02:15:08.427Z,1012.41
2023-04-07T02:20:08.516Z,1012.29
2023-04-07T02:25:08.580Z,1012.29
2023-04-07T02:30:08.607Z,1012.37
2023-04-07T02:35:08.649Z,1012.45
2023-04-07T02:40:08.765Z,1012.4
2023-04-07T02:45:09.013Z,1012.43
2023-04-07T02:50:08.083Z,1012.43
2023-04-07T02:55:08.156Z,1012.5
2023-04-07T03:00:08.216Z,1012.57
2023-04-07T03:05:08.249Z,1012.57
2023-04-07T03:10:08.302Z,1012.62
2023-04-07T03:15:08.485Z,1012.62
2023-04-07T03:20:08.590Z,1012.73
2023-04-07T03:25:08.641Z,1012.73
2023-04-07T03:30:08.677Z,1012.73
2023-04-07T03:35:08.752Z,1012.76
2023-04-07T03:40:08.856Z,1012.69
2023-04-07T03:45:08.895Z,1012.78
2023-04-07T03:50:08.966Z,1012.78
2023-04-07T03:55:08.047Z,1012.78
2023-04-07T04:00:08.169Z,1012.76
2023-04-07T04:05:02.312Z,1012.82
2023-04-07T04:10:02.596Z,1012.87
2023-04-07T04:15:02.717Z,1012.89
2023-04-07T04:20:02.923Z,1012.92
2023-04-07T04:25:02.044Z,1012.92
2023-04-07T04:30:02.340Z,1012.97
2023-04-07T04:35:02.494Z,1012.93
2023-04-07T04:40:02.766Z,1012.93
2023-04-07T04:45:02.932Z,1013.07
2023-04-07T04:50:03.235Z,1013.06
2023-04-07T04:55:02.491Z,1013.06
2023-04-07T05:00:02.754Z,1013.09
2023-04-07T05:05:03.085Z,1013.15
2023-04-07T05:10:02.223Z,1013.15
2023-04-07T05:15:02.779Z,1013.18
2023-04-07T05:20:03.027Z,1013.33
2023-04-07T05:25:02.212Z,1013.33
2023-04-07T05:30:02.398Z,1013.29
2023-04-07T05:35:02.676Z,1013.33
2023-04-07T05:40:02.848Z,1013.45
2023-04-07T05:45:03.029Z,1013.48
2023-04-07T05:50:02.196Z,1013.48
2023-04-07T05:55:02.551Z,1013.49
2023-04-07T06:00:02.684Z,1013.52
2023-04-07T06:05:02.864Z,1013.52
2023-04-07T06:10:03.139Z,1013.55
2023-04-07T06:15:02.376Z,1013.55
2023-04-07T06:20:02.513Z,1013.55
2023-04-07T06:25:02.655Z,1013.74
2023-04-07T06:30:02.799Z,1013.82
2023-04-07T06:35:03.018Z,1013.86
2023-04-07T06:40:02.650Z,1013.86
2023-04-07T06:45:02.818Z,1013.84
2023-04-07T06:50:03.004Z,1013.84
2023-04-07T06:55:03.237Z,1013.84
2023-04-07T07:00:02.498Z,1013.97
2023-04-07T07:05:02.670Z,1014.08
2023-04-07T07:10:02.841Z,1014.15
2023-04-07T07:15:02.991Z,1014.13
2023-04-07T07:20:02.221Z,1014.13
2023-04-07T07:25:02.400Z,1014.25
2023-04-07T07:30:02.573Z,1014.23
2023-04-07T07:35:02.807Z,1014.3
2023-04-07T07:40:03.116Z,1014.3
2023-04-07T07:45:02.304Z,1014.3
2023-04-07T07:50:02.461Z,1014.27
2023-04-07T07:55:02.631Z,1014.28
2023-04-07T08:00:02.845Z,1014.32
2023-04-07T08:05:03.161Z,1014.41
2023-04-07T08:10:02.345Z,1014.41
2023-04-07T08:15:02.553Z,1014.41
2023-04-07T08:20:02.841Z,1014.6
2023-04-07T08:25:03.068Z,1014.78
2023-04-07T08:30:02.249Z,1014.78
2023-04-07T08:35:02.357Z,1014.72
2023-04-07T08:40:02.492Z,1014.83
2023-04-07T08:45:02.748Z,1014.81
2023-04-07T08:50:02.879Z,1014.76
2023-04-07T08:55:02.992Z,1014.83
2023-04-07T09:00:07.125Z,1014.83
2023-04-07T09:05:02.291Z,1014.95
2023-04-07T09:10:02.436Z,1014.98
2023-04-07T09:15:02.547Z,1014.98
2023-04-07T09:20:02.768Z,1015.16
2023-04-07T09:25:02.933Z,1015.16
2023-04-07T09:30:02.132Z,1015.16
2023-04-07T09:35:02.261Z,1015.21
2023-04-07T09:40:02.390Z,1015.19
2023-04-07T09:45:02.491Z,1015.19
2023-04-07T09:50:02.656Z,1015.19
2023-04-07T09:55:02.795Z,1015.17
2023-04-07T10:00:02.931Z,1015.17
2023-04-07T10:05:02.352Z,1015.17
2023-04-07T10:10:02.699Z,1015.29
2023-04-07T10:15:02.888Z,1015.3
2023-04-07T10:20:03.135Z,1015.34
2023-04-07T10:25:02.299Z,1015.34
2023-04-07T10:30:02.470Z,1015.44
2023-04-07T10:35:02.667Z,1015.46
2023-04-07T10:40:02.884Z,1015.5
2023-04-07T10:45:04.548Z,1015.42
2023-04-07T10:50:12.707Z,1015.46
2023-04-07T10:55:02.916Z,1015.56
2023-04-07T11:00:03.165Z,1015.59
2023-04-07T11:05:02.398Z,1015.59
2023-04-07T11:10:02.604Z,1015.66
2023-04-07T11:15:02.736Z,1015.68
2023-04-07T11:20:02.958Z,1015.81
2023-04-07T11:25:02.073Z,1015.81
2023-04-07T11:30:02.187Z,1015.78
2023-04-07T11:35:02.356Z,1015.72
2023-04-07T11:40:02.632Z,1015.74
2023-04-07T11:45:02.815Z,1015.83
2023-04-07T11:50:02.976Z,1015.78
2023-04-07T11:55:02.236Z,1015.78
2023-04-07T12:00:02.446Z,1015.85
2023-04-07T12:05:02.725Z,1015.91
2023-04-07T12:10:02.921Z,1015.91
2023-04-07T12:15:03.109Z,1015.91
2023-04-07T12:20:02.472Z,1016.0
2023-04-07T12:25:02.665Z,1015.92
2023-04-07T12:30:02.823Z,1016.04
2023-04-07T12:35:03.028Z,1016.04
2023-04-07T12:40:02.164Z,1016.04
2023-04-07T12:45:02.403Z,1016.11
2023-04-07T12:50:02.502Z,1016.13
2023-04-07T12:55:02.735Z,1016.13
2023-04-07T13:00:02.929Z,1016.27
2023-04-07T13:05:02.295Z,1016.27
2023-04-07T13:10:02.503Z,1016.38
2023-04-07T13:15:02.605Z,1016.38
2023-04-07T13:20:02.771Z,1016.46
2023-04-07T13:25:03.088Z,1016.43
2023-04-07T13:30:02.353Z,1016.43
2023-04-07T13:35:02.561Z,1016.48
2023-04-07T13:40:02.726Z,1016.59
2023-04-07T13:45:02.885Z,1016.63
2023-04-07T13:50:03.104Z,1016.63
2023-04-07T13:55:02.341Z,1016.63
2023-04-07T14:00:02.475Z,1016.59
2023-04-07T14:05:02.730Z,1016.6
2023-04-07T14:10:02.915Z,1016.7
2023-04-07T14:15:03.216Z,1016.64
2023-04-07T14:20:02.507Z,1016.66
2023-04-07T14:25:02.634Z,1016.73
2023-04-07T14:30:02.844Z,1016.7
2023-04-07T14:35:03.082Z,1016.8
2023-04-07T14:40:03.411Z,1016.79
2023-04-07T14:45:02.719Z,1016.79
2023-04-07T14:50:02.857Z,1016.81
2023-04-07T14:55:02.973Z,1016.88
2023-04-07T15:00:02.194Z,1016.86
2023-04-07T15:05:02.326Z,1016.98
2023-04-07T15:10:02.514Z,1016.93
2023-04-07T15:15:02.687Z,1016.98
2023-04-07T15:20:02.959Z,1017.02
2023-04-07T15:25:02.177Z,1017.02
2023-04-07T15:30:02.442Z,1017.07
2023-04-07T15:35:02.603Z,1017.02
2023-04-07T15:40:02.709Z,1016.97
2023-04-07T15:45:02.891Z,1016.99
2023-04-07T15:50:03.100Z,1017.04
2023-04-07T15:55:02.327Z,1017.12
2023-04-07T16:00:02.550Z,1017.08
2023-04-07T16:05:02.745Z,1017.08
2023-04-07T16:10:03.079Z,1017.1
2023-04-07T16:15:02.328Z,1017.28
2023-04-07T16:20:02.678Z,1017.22
2023-04-07T16:25:02.920Z,1017.27
2023-04-07T16:30:03.151Z,1017.27
2023-04-07T16:35:02.344Z,1017.27
2023-04-07T16:40:02.607Z,1017.27
2023-04-07T16:45:02.811Z,1017.3
2023-04-07T16:50:03.047Z,1017.41
2023-04-07T16:55:02.271Z,1017.41
2023-04-07T17:00:02.442Z,1017.48
2023-04-07T17:05:02.567Z,1017.54
2023-04-07T17:10:02.824Z,1017.59
2023-04-07T17:15:03.002Z,1017.65
2023-04-07T17:20:02.282Z,1017.71
2023-04-07T17:25:02.428Z,1017.71
2023-04-07T17:30:02.581Z,1017.8
2023-04-07T17:35:02.685Z,1017.86
2023-04-07T17:40:02.866Z,1017.9
2023-04-07T17:45:02.977Z,1017.98
2023-04-07T17:50:02.250Z,1018.08
2023-04-07T17:55:02.565Z,1018.09
2023-04-07T18:00:02.779Z,1018.18
2023-04-07T18:05:03.133Z,1018.23
2023-04-07T18:10:02.324Z,1018.32
2023-04-07T18:15:02.421Z,1018.32
2023-04-07T18:20:02.572Z,1018.32
2023-04-07T18:25:02.696Z,1018.47
2023-04-07T18:30:02.830Z,1018.47
2023-04-07T18:35:02.976Z,1018.53
2023-04-07T18:40:02.309Z,1018.53
2023-04-07T18:45:02.448Z,1018.62
2023-04-07T18:50:02.619Z,1018.73
2023-04-07T18:55:02.788Z,1018.85
2023-04-07T19:00:03.021Z,1018.82
2023-04-07T19:05:02.321Z,1018.82
2023-04-07T19:10:02.565Z,1018.85
2023-04-07T19:15:02.726Z,1018.97
2023-04-07T19:20:02.913Z,1018.98
2023-04-07T19:25:03.168Z,1019.14
2023-04-07T19:30:02.308Z,1019.18
2023-04-07T19:35:02.552Z,1019.21
2023-04-07T19:40:03.724Z,1019.23
2023-04-07T19:45:02.957Z,1019.38
2023-04-07T19:50:02.160Z,1019.38
2023-04-07T19:55:02.306Z,1019.38
2023-04-07T20:00:02.425Z,1019.42
2023-04-07T20:05:02.609Z,1019.42
2023-04-07T20:10:02.765Z,1019.42
2023-04-07T20:15:02.974Z,1019.49
2023-04-07T20:20:02.237Z,1019.52
2023-04-07T20:25:02.409Z,1019.59
2023-04-07T20:30:02.756Z,1019.61
2023-04-07T20:35:02.910Z,1019.63
2023-04-07T20:40:03.086Z,1019.74
2023-04-07T20:45:02.206Z,1019.72
2023-04-07T20:50:02.340Z,1019.75
2023-04-07T20:55:02.498Z,1019.86
2023-04-07T21:00:02.644Z,1019.86
2023-04-07T21:05:02.786Z,1019.91
2023-04-07T21:10:02.890Z,1019.92
2023-04-07T21:15:03.018Z,1019.88
2023-04-07T21:20:02.224Z,1019.88
2023-04-07T21:25:02.394Z,1019.91
2023-04-07T21:30:02.544Z,1019.93
2023-04-07T21:35:02.773Z,1019.93
2023-04-07T21:40:02.894Z,1019.97
2023-04-07T21:45:03.340Z,1019.96
2023-04-07T21:50:02.607Z,1019.98
2023-04-07T21:55:02.821Z,1019.98
2023-04-07T22:00:02.974Z,1019.92
2023-04-07T22:05:08.021Z,1019.92
2023-04-07T22:10:08.090Z,1019.98
2023-04-07T22:15:08.151Z,1019.98
2023-04-07T22:20:08.207Z,1020.08
2023-04-07T22:25:08.238Z,1020.16
2023-04-07T22:30:08.284Z,1020.18
2023-04-07T22:35:08.398Z,1020.18
2023-04-07T22:40:08.461Z,1020.2
2023-04-07T22:45:08.537Z,1020.24
2023-04-07T22:50:08.588Z,1020.3
2023-04-07T22:55:08.639Z,1020.3
2023-04-07T23:01:13.272Z,1020.34
2023-04-07T23:05:08.299Z,1020.39
2023-04-07T23:10:08.458Z,1020.42
2023-04-07T23:15:08.504Z,1020.44
2023-04-07T23:20:08.623Z,1020.45
2023-04-07T23:25:08.724Z,1020.59
2023-04-07T23:30:08.757Z,1020.52
2023-04-07T23:35:08.788Z,1020.51
2023-04-07T23:40:08.818Z,1020.59
2023-04-07T23:45:09.778Z,1020.53
2023-04-07T23:50:08.885Z,1020.52
2023-04-07T23:55:08.941Z,1020.51
